Time;durP1;ratioP1;P1;durP2;ratioP2;P2;SDS_P1;SDS_P2;PMS_P1;PMS_P2;Temp;Humidity;BMP_temperature;BMP_pressure;BME280_temperature;BME280_humidity;BME280_pressure;Samples;Min_cycle;Max_cycle;Signal;HPM_P1;HPM_P2
2021/04/27 00:00:07;;;;;;;44.28;34.55;;;;;;;;;;3557771;40;20491;-70
2021/04/27 00:02:33;;;;;;;42.40;34.42;;;;;;;;;;3566691;40;20401;-70
2021/04/27 00:05:00;;;;;;;40.70;33.78;;;;;;;;;;3558045;40;20655;-70
2021/04/27 00:07:26;;;;;;;38.08;31.95;;;;;;;;;;3563913;40;20399;-70
2021/04/27 00:09:53;;;;;;;35.60;29.40;;;;;;;;;;3565173;40;20389;-69
2021/04/27 00:12:20;;;;;;;35.28;29.45;;;;;;;;;;3567030;40;20476;-71
2021/04/27 00:14:46;;;;;;;34.65;29.48;;;;;;;;;;3566942;40;20385;-71
2021/04/27 00:17:12;;;;;;;32.00;27.75;;;;;;;;;;3550329;40;20419;-70
2021/04/27 00:19:39;;;;;;;34.13;28.52;;;;;;;;;;3566356;40;20428;-70
2021/04/27 00:22:06;;;;;;;38.10;29.95;;;;;;;;;;3561144;40;20796;-69
2021/04/27 00:24:32;;;;;;;33.95;27.42;;;;;;;;;;3551872;40;20409;-70
2021/04/27 00:26:59;;;;;;;29.15;24.73;;;;;;;;;;3563299;40;20399;-69
2021/04/27 00:29:26;;;;;;;30.73;24.83;;;;;;;;;;3566460;40;20753;-69
2021/04/27 00:31:52;;;;;;;30.58;25.70;;;;;;;;;;3549910;40;20407;-71
2021/04/27 00:34:18;;;;;;;26.80;23.52;;;;;;;;;;3556386;40;20433;-70
2021/04/27 00:36:44;;;;;;;29.38;24.52;;;;;;;;;;3557915;40;20396;-70
2021/04/27 00:39:11;;;;;;;27.75;24.45;;;;;;;;;;3564800;40;20404;-69
2021/04/27 00:41:38;;;;;;;28.97;24.63;;;;;;;;;;3567022;40;20531;-71
2021/04/27 00:44:04;;;;;;;28.90;23.42;;;;;;;;;;3564783;40;20401;-70
2021/04/27 00:46:30;;;;;;;28.38;24.30;;;;;;;;;;3565080;40;20401;-70
2021/04/27 00:48:57;;;;;;;28.92;24.38;;;;;;;;;;3564943;40;20382;-70
2021/04/27 00:51:23;;;;;;;27.83;23.73;;;;;;;;;;3566685;40;20404;-70
2021/04/27 00:53:50;;;;;;;29.13;24.35;;;;;;;;;;3572103;40;20764;-70
2021/04/27 00:56:19;;;;;;;28.47;24.87;;;;;;;;;;3557920;40;20393;-70
2021/04/27 00:58:45;;;;;;;28.25;24.45;;;;;;;;;;3565397;40;20434;-70
2021/04/27 01:01:12;;;;;;;28.38;24.40;;;;;;;;;;3555987;40;20415;-64
2021/04/27 01:03:39;;;;;;;33.10;27.33;;;;;;;;;;3609143;23;20440;-71
2021/04/27 01:06:05;;;;;;;32.45;27.10;;;;;;;;;;3584466;40;20740;-71
2021/04/27 01:08:33;;;;;;;31.45;27.45;;;;;;;;;;3585035;40;20811;-71
2021/04/27 01:11:02;;;;;;;38.03;31.58;;;;;;;;;;3581650;40;20382;-70
2021/04/27 01:13:33;;;;;;;33.65;28.83;;;;;;;;;;3586928;40;20374;-71
2021/04/27 01:15:59;;;;;;;37.33;32.20;;;;;;;;;;3586165;40;20378;-71
2021/04/27 01:18:26;;;;;;;34.97;28.73;;;;;;;;;;3580937;40;20786;-71
2021/04/27 01:20:53;;;;;;;33.53;29.33;;;;;;;;;;3577476;40;20387;-71
2021/04/27 01:23:28;;;;;;;33.65;28.15;;;;;;;;;;3583364;40;20645;-71
2021/04/27 01:25:56;;;;;;;38.25;32.20;;;;;;;;;;3584893;40;20363;-71
2021/04/27 01:28:25;;;;;;;34.53;29.23;;;;;;;;;;3583456;40;20405;-71
2021/04/27 01:30:51;;;;;;;36.65;30.02;;;;;;;;;;3586878;40;20398;-71
2021/04/27 01:33:19;;;;;;;33.40;29.75;;;;;;;;;;3578838;40;20402;-71
2021/04/27 01:35:45;;;;;;;35.33;29.90;;;;;;;;;;3582792;40;20743;-71
2021/04/27 01:38:12;;;;;;;32.97;28.02;;;;;;;;;;3584766;40;20380;-72
2021/04/27 01:40:38;;;;;;;35.33;29.70;;;;;;;;;;3567790;40;20411;-71
2021/04/27 01:43:04;;;;;;;34.20;29.45;;;;;;;;;;3577857;40;20368;-71
2021/04/27 01:45:32;;;;;;;35.13;29.57;;;;;;;;;;3583426;40;20461;-71
2021/04/27 01:47:59;;;;;;;39.83;31.87;;;;;;;;;;3583577;40;20390;-71
2021/04/27 01:50:25;;;;;;;39.33;32.28;;;;;;;;;;3586573;40;20743;-71
2021/04/27 01:52:55;;;;;;;34.10;30.17;;;;;;;;;;3585676;40;20479;-71
2021/04/27 01:55:21;;;;;;;37.33;30.25;;;;;;;;;;3586458;40;20374;-72
2021/04/27 01:57:48;;;;;;;33.97;28.48;;;;;;;;;;3585481;40;20434;-71
2021/04/27 02:00:16;;;;;;;35.00;29.75;;;;;;;;;;3585216;40;20437;-71
2021/04/27 02:02:43;;;;;;;34.97;29.80;;;;;;;;;;3574952;40;20439;-71
2021/04/27 02:05:13;;;;;;;41.35;33.42;;;;;;;;;;3576820;40;20430;-70
2021/04/27 02:07:39;;;;;;;40.60;33.78;;;;;;;;;;3566795;40;20404;-70
2021/04/27 02:10:07;;;;;;;41.28;34.03;;;;;;;;;;3576325;40;20723;-69
2021/04/27 02:12:35;;;;;;;44.88;35.20;;;;;;;;;;3576162;40;20395;-70
2021/04/27 02:15:01;;;;;;;42.70;34.50;;;;;;;;;;3575243;40;20673;-70
2021/04/27 02:17:31;;;;;;;38.33;31.23;;;;;;;;;;3575179;40;20475;-70
2021/04/27 02:19:58;;;;;;;37.58;30.45;;;;;;;;;;3570324;40;20405;-69
2021/04/27 02:22:26;;;;;;;34.73;29.70;;;;;;;;;;3576346;40;20500;-70
2021/04/27 02:24:54;;;;;;;36.47;30.98;;;;;;;;;;3575273;40;20458;-70
2021/04/27 02:27:21;;;;;;;43.05;34.35;;;;;;;;;;3576233;40;20383;-69
2021/04/27 02:29:47;;;;;;;46.33;37.25;;;;;;;;;;3570201;40;20402;-70
2021/04/27 02:32:14;;;;;;;40.22;32.60;;;;;;;;;;3576589;40;20748;-70
2021/04/27 02:34:40;;;;;;;42.10;34.10;;;;;;;;;;3576260;40;20390;-70
2021/04/27 02:37:08;;;;;;;39.67;32.63;;;;;;;;;;3576141;40;20475;-69
2021/04/27 02:39:35;;;;;;;37.63;31.47;;;;;;;;;;3566768;40;20527;-70
2021/04/27 02:42:02;;;;;;;36.15;31.58;;;;;;;;;;3575845;40;20439;-70
2021/04/27 02:44:28;;;;;;;40.65;33.20;;;;;;;;;;3572781;40;20697;-70
2021/04/27 02:46:55;;;;;;;38.35;32.03;;;;;;;;;;3578375;40;20651;-70
2021/04/27 02:49:21;;;;;;;38.03;31.75;;;;;;;;;;3576130;40;20399;-70
2021/04/27 02:51:47;;;;;;;37.90;31.15;;;;;;;;;;3579275;40;20400;-70
2021/04/27 02:54:15;;;;;;;39.10;32.67;;;;;;;;;;3579622;40;20387;-70
2021/04/27 02:56:41;;;;;;;38.50;32.25;;;;;;;;;;3575933;40;20396;-72
2021/04/27 02:59:08;;;;;;;40.13;32.75;;;;;;;;;;3576099;40;20372;-71
2021/04/27 03:01:35;;;;;;;35.42;29.80;;;;;;;;;;3577459;40;20394;-71
2021/04/27 03:04:01;;;;;;;38.20;31.00;;;;;;;;;;3580109;40;20414;-71
2021/04/27 03:06:27;;;;;;;38.90;31.45;;;;;;;;;;3575630;40;20473;-71
2021/04/27 03:08:53;;;;;;;38.72;31.80;;;;;;;;;;3582366;40;20503;-71
2021/04/27 03:11:20;;;;;;;37.08;30.80;;;;;;;;;;3570129;40;20378;-71
2021/04/27 03:13:47;;;;;;;34.92;29.63;;;;;;;;;;3572779;40;20396;-71
2021/04/27 03:16:13;;;;;;;38.28;30.27;;;;;;;;;;3575531;40;20402;-71
2021/04/27 03:18:39;;;;;;;34.83;29.05;;;;;;;;;;3576049;40;20387;-71
2021/04/27 03:21:05;;;;;;;35.80;30.05;;;;;;;;;;3575647;40;20406;-71
2021/04/27 03:23:32;;;;;;;40.28;32.17;;;;;;;;;;3570698;40;20717;-71
2021/04/27 03:25:58;;;;;;;37.30;30.30;;;;;;;;;;3574285;40;20384;-71
2021/04/27 03:28:25;;;;;;;34.30;29.00;;;;;;;;;;3575759;40;20371;-71
2021/04/27 03:30:51;;;;;;;34.30;28.35;;;;;;;;;;3566532;40;20420;-71
2021/04/27 03:33:17;;;;;;;35.40;28.83;;;;;;;;;;3576815;40;20383;-71
2021/04/27 03:35:44;;;;;;;39.95;31.55;;;;;;;;;;3574276;40;20385;-71
2021/04/27 03:38:11;;;;;;;33.85;27.73;;;;;;;;;;3574099;40;20658;-71
2021/04/27 03:40:37;;;;;;;32.88;27.92;;;;;;;;;;3565733;40;20480;-71
2021/04/27 03:43:03;;;;;;;34.37;28.87;;;;;;;;;;3575850;40;20379;-71
2021/04/27 03:45:36;;;;;;;35.08;28.05;;;;;;;;;;3578188;40;20641;-71
2021/04/27 03:48:06;;;;;;;36.42;29.60;;;;;;;;;;3577423;40;20411;-71
2021/04/27 03:50:32;;;;;;;35.33;29.60;;;;;;;;;;3576503;40;20381;-71
2021/04/27 03:52:59;;;;;;;30.30;26.25;;;;;;;;;;3579117;40;20431;-71
2021/04/27 03:55:25;;;;;;;32.33;26.35;;;;;;;;;;3577149;40;20379;-71
2021/04/27 03:57:51;;;;;;;33.10;27.33;;;;;;;;;;3572207;40;20480;-71
2021/04/27 04:00:18;;;;;;;30.38;25.63;;;;;;;;;;3577480;40;20484;-71
2021/04/27 04:02:45;;;;;;;34.13;27.33;;;;;;;;;;3577015;40;20415;-71
2021/04/27 04:05:12;;;;;;;31.98;26.33;;;;;;;;;;3577542;40;20383;-71
2021/04/27 04:07:38;;;;;;;36.00;29.13;;;;;;;;;;3577531;40;20392;-71
2021/04/27 04:10:04;;;;;;;35.25;28.92;;;;;;;;;;3577145;40;20383;-71
2021/04/27 04:12:31;;;;;;;35.83;28.77;;;;;;;;;;3577387;40;20661;-71
2021/04/27 04:14:57;;;;;;;36.58;29.63;;;;;;;;;;3577128;40;20386;-71
2021/04/27 04:17:23;;;;;;;32.13;26.73;;;;;;;;;;3577118;40;20383;-71
2021/04/27 04:19:50;;;;;;;35.90;28.90;;;;;;;;;;3577238;40;20688;-71
2021/04/27 04:22:16;;;;;;;30.63;26.08;;;;;;;;;;3577792;40;20383;-72
2021/04/27 04:24:43;;;;;;;34.63;27.73;;;;;;;;;;3578277;40;20368;-71
2021/04/27 04:27:09;;;;;;;31.77;25.88;;;;;;;;;;3577321;40;20365;-72
2021/04/27 04:29:35;;;;;;;28.75;24.40;;;;;;;;;;3580695;40;20391;-71
2021/04/27 04:32:01;;;;;;;35.72;26.45;;;;;;;;;;3577162;40;20455;-71
2021/04/27 04:34:28;;;;;;;36.67;29.33;;;;;;;;;;3573969;40;20390;-71
2021/04/27 04:36:55;;;;;;;34.25;27.23;;;;;;;;;;3575238;40;20380;-72
2021/04/27 04:39:21;;;;;;;31.77;26.70;;;;;;;;;;3577777;40;20510;-71
2021/04/27 04:41:47;;;;;;;29.30;25.42;;;;;;;;;;3578576;40;20392;-71
2021/04/27 04:44:14;;;;;;;31.73;26.70;;;;;;;;;;3576680;40;20376;-71
2021/04/27 04:46:40;;;;;;;29.83;24.90;;;;;;;;;;3580498;40;20354;-76
2021/04/27 04:49:07;;;;;;;28.52;24.23;;;;;;;;;;3577573;40;20400;-71
2021/04/27 04:51:33;;;;;;;31.05;25.27;;;;;;;;;;3576963;40;20380;-72
2021/04/27 04:54:00;;;;;;;28.45;24.70;;;;;;;;;;3573868;40;20380;-72
2021/04/27 04:56:26;;;;;;;31.13;25.55;;;;;;;;;;3576247;40;20404;-71
2021/04/27 04:58:52;;;;;;;30.77;25.92;;;;;;;;;;3580504;40;20751;-71
2021/04/27 05:01:19;;;;;;;30.27;24.73;;;;;;;;;;3576479;40;20411;-71
2021/04/27 05:03:45;;;;;;;30.75;25.90;;;;;;;;;;3580024;40;20497;-71
2021/04/27 05:06:16;;;;;;;29.42;24.55;;;;;;;;;;3575110;40;20388;-71
2021/04/27 05:08:48;;;;;;;31.35;26.10;;;;;;;;;;3578851;40;20379;-71
2021/04/27 05:11:15;;;;;;;29.70;24.83;;;;;;;;;;3574139;40;20522;-71
2021/04/27 05:13:41;;;;;;;32.47;26.20;;;;;;;;;;3576402;40;20403;-71
2021/04/27 05:16:08;;;;;;;30.73;25.88;;;;;;;;;;3571877;40;20744;-71
2021/04/27 05:18:35;;;;;;;31.42;26.08;;;;;;;;;;3576722;40;20372;-71
2021/04/27 05:21:01;;;;;;;34.47;26.80;;;;;;;;;;3575522;40;20403;-71
2021/04/27 05:23:28;;;;;;;29.85;24.02;;;;;;;;;;3576565;40;20399;-71
2021/04/27 05:25:54;;;;;;;31.65;25.80;;;;;;;;;;3576973;40;20419;-71
2021/04/27 05:28:21;;;;;;;29.92;24.63;;;;;;;;;;3577109;40;20391;-71
2021/04/27 05:30:47;;;;;;;27.83;23.58;;;;;;;;;;3575781;40;20780;-71
2021/04/27 05:33:13;;;;;;;26.60;22.10;;;;;;;;;;3573307;40;20428;-71
2021/04/27 05:35:41;;;;;;;25.67;22.63;;;;;;;;;;3573762;40;20395;-71
2021/04/27 05:38:07;;;;;;;30.17;23.77;;;;;;;;;;3576284;40;20458;-71
2021/04/27 05:40:33;;;;;;;25.77;22.80;;;;;;;;;;3578325;40;20854;-71
2021/04/27 05:42:59;;;;;;;28.15;22.85;;;;;;;;;;3576632;40;20507;-71
2021/04/27 05:45:27;;;;;;;25.98;22.05;;;;;;;;;;3575872;40;20392;-71
2021/04/27 05:47:53;;;;;;;24.65;21.15;;;;;;;;;;3574519;40;20399;-72
2021/04/27 05:50:19;;;;;;;24.60;20.73;;;;;;;;;;3572910;40;20438;-71
2021/04/27 05:52:46;;;;;;;23.33;20.35;;;;;;;;;;3573686;40;20741;-72
2021/04/27 05:55:12;;;;;;;24.00;20.33;;;;;;;;;;3576103;40;20523;-71
2021/04/27 05:57:38;;;;;;;24.50;20.63;;;;;;;;;;3575200;40;20477;-71
2021/04/27 06:00:05;;;;;;;26.13;22.15;;;;;;;;;;3580162;40;20384;-71
2021/04/27 06:02:33;;;;;;;27.05;22.67;;;;;;;;;;3576426;40;20406;-71
2021/04/27 06:04:59;;;;;;;24.23;20.80;;;;;;;;;;3576788;40;20396;-71
2021/04/27 06:07:26;;;;;;;26.80;21.65;;;;;;;;;;3577691;40;21297;-71
2021/04/27 06:09:53;;;;;;;23.75;20.70;;;;;;;;;;3574014;40;20788;-71
2021/04/27 06:12:19;;;;;;;26.60;21.45;;;;;;;;;;3576680;40;20371;-71
2021/04/27 06:14:45;;;;;;;26.00;22.13;;;;;;;;;;3576749;40;20398;-71
2021/04/27 06:17:11;;;;;;;27.42;22.48;;;;;;;;;;3576369;40;20396;-71
2021/04/27 06:19:38;;;;;;;23.27;20.63;;;;;;;;;;3576458;40;20382;-71
2021/04/27 06:22:05;;;;;;;19.95;17.52;;;;;;;;;;3580081;40;20403;-71
2021/04/27 06:24:31;;;;;;;18.27;16.13;;;;;;;;;;3576580;40;20484;-71
2021/04/27 06:26:57;;;;;;;19.05;17.05;;;;;;;;;;3576540;40;20383;-71
2021/04/27 06:29:23;;;;;;;19.63;17.53;;;;;;;;;;3582247;40;20473;-71
2021/04/27 06:31:49;;;;;;;20.38;17.35;;;;;;;;;;3574253;40;20380;-71
2021/04/27 06:34:16;;;;;;;20.42;16.98;;;;;;;;;;3576484;40;20394;-71
2021/04/27 06:36:43;;;;;;;23.25;18.02;;;;;;;;;;3576402;40;20380;-71
2021/04/27 06:39:09;;;;;;;20.10;17.38;;;;;;;;;;3576554;40;20757;-71
2021/04/27 06:41:35;;;;;;;20.00;17.15;;;;;;;;;;3576234;40;20391;-71
2021/04/27 06:44:02;;;;;;;17.20;15.40;;;;;;;;;;3573432;40;20401;-71
2021/04/27 06:46:28;;;;;;;17.40;15.60;;;;;;;;;;3580556;40;20771;-71
2021/04/27 06:48:55;;;;;;;17.73;15.82;;;;;;;;;;3576125;40;20415;-70
2021/04/27 06:51:21;;;;;;;16.40;14.70;;;;;;;;;;3576196;40;20402;-71
2021/04/27 06:53:49;;;;;;;17.02;15.23;;;;;;;;;;3575977;40;20440;-71
2021/04/27 06:56:16;;;;;;;19.60;17.15;;;;;;;;;;3578735;40;20400;-71
2021/04/27 06:58:42;;;;;;;19.30;17.27;;;;;;;;;;3576211;40;20388;-71
2021/04/27 07:01:08;;;;;;;21.25;18.17;;;;;;;;;;3579822;40;20402;-71
2021/04/27 07:03:35;;;;;;;22.93;20.27;;;;;;;;;;3576073;40;20518;-71
2021/04/27 07:06:01;;;;;;;23.67;19.70;;;;;;;;;;3575095;40;20626;-71
2021/04/27 07:08:28;;;;;;;20.88;18.48;;;;;;;;;;3577747;40;20792;-71
2021/04/27 07:10:57;;;;;;;20.67;18.58;;;;;;;;;;3568196;40;20484;-71
2021/04/27 07:13:23;;;;;;;17.25;15.45;;;;;;;;;;3577804;40;20767;-71
2021/04/27 07:15:49;;;;;;;18.55;16.55;;;;;;;;;;3577547;40;20388;-71
2021/04/27 07:18:16;;;;;;;19.63;17.25;;;;;;;;;;3578327;40;20383;-71
2021/04/27 07:20:42;;;;;;;20.53;18.40;;;;;;;;;;3577628;40;20395;-71
2021/04/27 07:23:08;;;;;;;20.42;18.17;;;;;;;;;;3577898;40;20376;-71
2021/04/27 07:25:34;;;;;;;20.60;18.20;;;;;;;;;;3577731;40;20649;-71
2021/04/27 07:28:04;;;;;;;20.83;18.50;;;;;;;;;;3577729;40;20375;-71
2021/04/27 07:30:30;;;;;;;21.83;19.52;;;;;;;;;;3577801;40;20391;-71
2021/04/27 07:32:56;;;;;;;20.65;18.45;;;;;;;;;;3577625;40;20431;-71
2021/04/27 07:35:22;;;;;;;19.80;17.70;;;;;;;;;;3569650;40;20393;-71
2021/04/27 07:37:49;;;;;;;19.95;17.85;;;;;;;;;;3577158;40;20398;-71
2021/04/27 07:40:15;;;;;;;21.42;19.20;;;;;;;;;;3577057;40;20396;-71
2021/04/27 07:42:42;;;;;;;21.17;18.57;;;;;;;;;;3566115;40;20454;-71
2021/04/27 07:45:11;;;;;;;20.65;18.48;;;;;;;;;;3577556;40;20699;-70
2021/04/27 07:47:37;;;;;;;20.73;18.55;;;;;;;;;;3581287;40;20834;-71
2021/04/27 07:50:03;;;;;;;22.98;18.70;;;;;;;;;;3574211;40;20457;-71
2021/04/27 07:52:31;;;;;;;20.33;18.23;;;;;;;;;;3575615;40;20396;-71
2021/04/27 07:54:57;;;;;;;22.10;19.63;;;;;;;;;;3576811;40;20474;-71
2021/04/27 07:57:24;;;;;;;21.27;19.02;;;;;;;;;;3577838;40;20357;-71
2021/04/27 07:59:50;;;;;;;22.63;20.13;;;;;;;;;;3581058;40;20467;-71
2021/04/27 08:02:17;;;;;;;22.55;19.10;;;;;;;;;;3567518;40;20451;-71
2021/04/27 08:04:45;;;;;;;22.98;19.75;;;;;;;;;;3577272;40;20384;-71
2021/04/27 08:07:12;;;;;;;21.02;18.23;;;;;;;;;;3577607;40;20655;-71
2021/04/27 08:09:38;;;;;;;24.30;19.97;;;;;;;;;;3576467;40;20381;-71
2021/04/27 08:12:05;;;;;;;21.58;18.90;;;;;;;;;;3570310;40;20396;-70
2021/04/27 08:14:32;;;;;;;23.08;20.33;;;;;;;;;;3577491;40;20384;-71
2021/04/27 08:16:58;;;;;;;23.25;20.83;;;;;;;;;;3576451;40;20407;-71
2021/04/27 08:19:25;;;;;;;21.75;19.45;;;;;;;;;;3574302;40;20374;-70
2021/04/27 08:21:51;;;;;;;22.30;19.95;;;;;;;;;;3573375;40;20403;-70
2021/04/27 08:24:17;;;;;;;21.35;19.20;;;;;;;;;;3577174;40;20419;-71
2021/04/27 08:26:44;;;;;;;23.52;21.00;;;;;;;;;;3577483;40;20396;-71
2021/04/27 08:29:10;;;;;;;22.77;20.07;;;;;;;;;;3577494;40;20470;-71
2021/04/27 08:31:36;;;;;;;20.58;18.38;;;;;;;;;;3577420;40;20467;-72
2021/04/27 08:34:03;;;;;;;23.90;21.25;;;;;;;;;;3577373;40;20392;-71
2021/04/27 08:36:30;;;;;;;20.90;18.70;;;;;;;;;;3577478;40;20383;-71
2021/04/27 08:38:57;;;;;;;20.63;18.45;;;;;;;;;;3577392;40;20392;-72
2021/04/27 08:41:25;;;;;;;20.23;18.02;;;;;;;;;;3574598;40;20808;-71
2021/04/27 08:43:51;;;;;;;19.70;17.60;;;;;;;;;;3576588;40;20419;-71
2021/04/27 08:46:18;;;;;;;21.33;19.02;;;;;;;;;;3577322;40;20368;-71
2021/04/27 08:48:44;;;;;;;19.73;17.73;;;;;;;;;;3577284;40;20496;-71
2021/04/27 08:51:11;;;;;;;19.77;17.77;;;;;;;;;;3577364;40;20417;-71
2021/04/27 08:53:38;;;;;;;20.73;18.00;;;;;;;;;;3570243;40;20662;-71
2021/04/27 08:56:05;;;;;;;20.45;18.25;;;;;;;;;;3570369;40;20392;-71
2021/04/27 08:58:31;;;;;;;22.63;20.17;;;;;;;;;;3577369;40;20372;-71
2021/04/27 09:00:57;;;;;;;21.67;19.23;;;;;;;;;;3574741;40;20662;-72
2021/04/27 09:03:23;;;;;;;20.30;18.15;;;;;;;;;;3572738;40;20534;-71
2021/04/27 09:05:50;;;;;;;18.70;16.77;;;;;;;;;;3577003;40;20368;-72
2021/04/27 09:08:16;;;;;;;19.73;17.67;;;;;;;;;;3577253;40;20379;-71
2021/04/27 09:10:44;;;;;;;18.75;16.75;;;;;;;;;;3572537;40;20414;-71
2021/04/27 09:13:12;;;;;;;19.70;17.77;;;;;;;;;;3576830;40;20406;-71
2021/04/27 09:15:44;;;;;;;18.55;16.55;;;;;;;;;;3577269;40;20408;-71
2021/04/27 09:18:23;;;;;;;18.70;16.70;;;;;;;;;;3575964;40;20400;-71
2021/04/27 09:20:50;;;;;;;19.02;17.13;;;;;;;;;;3576840;40;20395;-71
2021/04/27 09:23:17;;;;;;;18.92;17.00;;;;;;;;;;3577003;40;20377;-71
2021/04/27 09:25:46;;;;;;;17.80;15.98;;;;;;;;;;3576969;40;20383;-72
2021/04/27 09:28:12;;;;;;;19.80;17.00;;;;;;;;;;3567566;40;20447;-71
2021/04/27 09:30:41;;;;;;;16.43;14.83;;;;;;;;;;3579502;40;20403;-71
2021/04/27 09:33:09;;;;;;;17.90;16.10;;;;;;;;;;3577033;40;20374;-71
2021/04/27 09:35:38;;;;;;;17.70;15.90;;;;;;;;;;3573710;40;20653;-72
2021/04/27 09:38:05;;;;;;;17.70;15.90;;;;;;;;;;3582481;40;20410;-72
2021/04/27 09:40:31;;;;;;;17.90;16.20;;;;;;;;;;3577682;40;20399;-72
2021/04/27 09:43:03;;;;;;;17.48;15.68;;;;;;;;;;3577252;40;20684;-71
2021/04/27 09:45:38;;;;;;;17.00;15.30;;;;;;;;;;3575879;40;20396;-71
2021/04/27 09:48:05;;;;;;;17.35;15.57;;;;;;;;;;3573599;40;20767;-71
2021/04/27 09:50:31;;;;;;;17.48;15.73;;;;;;;;;;3578168;40;20385;-71
2021/04/27 09:52:57;;;;;;;15.27;13.75;;;;;;;;;;3578687;40;20641;-71
2021/04/27 09:55:25;;;;;;;14.68;13.27;;;;;;;;;;3576952;40;20645;-71
2021/04/27 09:57:52;;;;;;;15.73;14.13;;;;;;;;;;3576959;40;20765;-71
2021/04/27 10:00:32;;;;;;;16.52;14.85;;;;;;;;;;3576911;40;20386;-71
2021/04/27 10:02:59;;;;;;;16.42;14.82;;;;;;;;;;3573839;40;20415;-71
2021/04/27 10:05:26;;;;;;;15.23;13.73;;;;;;;;;;3579321;40;20471;-71
2021/04/27 10:07:53;;;;;;;15.30;13.73;;;;;;;;;;3576849;40;20439;-71
2021/04/27 10:10:19;;;;;;;13.60;12.20;;;;;;;;;;3576647;40;20431;-71
2021/04/27 10:12:47;;;;;;;14.88;13.38;;;;;;;;;;3576940;40;20416;-71
2021/04/27 10:15:14;;;;;;;12.93;11.65;;;;;;;;;;3576776;40;20361;-71
2021/04/27 10:17:41;;;;;;;12.02;10.88;;;;;;;;;;3576766;40;20384;-71
2021/04/27 10:20:11;;;;;;;14.85;13.27;;;;;;;;;;3576866;40;20427;-72
2021/04/27 10:22:38;;;;;;;13.68;12.38;;;;;;;;;;3577038;40;20440;-71
2021/04/27 10:25:05;;;;;;;12.70;11.50;;;;;;;;;;3576753;40;20447;-71
2021/04/27 10:27:32;;;;;;;12.82;11.63;;;;;;;;;;3575731;40;20408;-71
2021/04/27 10:30:19;;;;;;;13.93;12.52;;;;;;;;;;3567635;40;20445;-72
2021/04/27 10:33:06;;;;;;;12.90;11.70;;;;;;;;;;3580478;40;20757;-71
2021/04/27 10:35:34;;;;;;;12.45;11.25;;;;;;;;;;3564451;40;20405;-72
2021/04/27 10:38:01;;;;;;;13.15;11.95;;;;;;;;;;3582082;40;20450;-71
2021/04/27 10:40:44;;;;;;;12.88;11.57;;;;;;;;;;3577223;40;20530;-72
2021/04/27 10:43:28;;;;;;;11.45;10.35;;;;;;;;;;3578942;40;20378;-71
2021/04/27 10:45:56;;;;;;;11.00;9.70;;;;;;;;;;3572756;40;20371;-71
2021/04/27 10:48:26;;;;;;;11.50;10.40;;;;;;;;;;3574837;40;20391;-71
2021/04/27 10:50:52;;;;;;;12.10;10.90;;;;;;;;;;3574184;40;20637;-71
2021/04/27 10:53:32;;;;;;;10.85;9.80;;;;;;;;;;3575378;40;20477;-71
2021/04/27 10:55:58;;;;;;;11.40;10.20;;;;;;;;;;3575645;40;20462;-71
2021/04/27 10:58:43;;;;;;;12.00;10.82;;;;;;;;;;3573505;40;20774;-71
2021/04/27 11:01:20;;;;;;;12.15;10.98;;;;;;;;;;3575558;40;20797;-72
2021/04/27 11:03:51;;;;;;;10.77;9.73;;;;;;;;;;3573558;40;20415;-72
2021/04/27 11:06:17;;;;;;;10.85;9.85;;;;;;;;;;3572635;40;20765;-72
2021/04/27 11:08:49;;;;;;;12.80;11.57;;;;;;;;;;3576059;40;20372;-71
2021/04/27 11:11:20;;;;;;;12.73;11.52;;;;;;;;;;3575128;40;20372;-71
2021/04/27 11:13:47;;;;;;;13.07;11.88;;;;;;;;;;3574610;40;20680;-72
2021/04/27 11:16:27;;;;;;;11.68;10.57;;;;;;;;;;3575722;40;20388;-72
2021/04/27 11:19:09;;;;;;;13.43;11.02;;;;;;;;;;3575750;40;20387;-72
2021/04/27 11:21:35;;;;;;;12.77;11.55;;;;;;;;;;3577402;40;20386;-72
2021/04/27 11:24:05;;;;;;;11.68;10.55;;;;;;;;;;3575840;40;20659;-71
2021/04/27 11:26:44;;;;;;;13.98;12.68;;;;;;;;;;3575936;40;20457;-72
2021/04/27 11:29:15;;;;;;;14.15;12.85;;;;;;;;;;3573126;40;20392;-72
2021/04/27 11:31:54;;;;;;;27.85;25.08;;;;;;;;;;3573756;40;22385;-72
2021/04/27 11:34:21;;;;;;;17.17;15.50;;;;;;;;;;3573990;40;20576;-72
2021/04/27 11:36:47;;;;;;;17.23;15.55;;;;;;;;;;3566398;40;20407;-72
2021/04/27 11:39:14;;;;;;;17.35;15.68;;;;;;;;;;3566464;40;20433;-72
2021/04/27 11:41:45;;;;;;;16.02;14.43;;;;;;;;;;3574610;40;20447;-72
2021/04/27 11:44:11;;;;;;;15.23;13.73;;;;;;;;;;3574700;40;20526;-72
2021/04/27 11:46:57;;;;;;;14.73;13.32;;;;;;;;;;3574194;40;20817;-72
2021/04/27 11:49:44;;;;;;;17.23;14.68;;;;;;;;;;3573911;40;20813;-72
2021/04/27 11:52:10;;;;;;;18.30;15.93;;;;;;;;;;3574599;40;20477;-72
2021/04/27 11:54:36;;;;;;;20.13;18.02;;;;;;;;;;3575967;40;20396;-71
2021/04/27 11:57:03;;;;;;;19.73;17.63;;;;;;;;;;3572580;40;20411;-72
2021/04/27 11:59:29;;;;;;;26.20;23.38;;;;;;;;;;3573797;40;20384;-72
2021/04/27 12:01:59;;;;;;;23.20;20.67;;;;;;;;;;3577401;40;20404;-72
2021/04/27 12:04:27;;;;;;;19.67;17.58;;;;;;;;;;3577542;40;20657;-72
2021/04/27 12:06:58;;;;;;;20.45;18.25;;;;;;;;;;3579349;40;20476;-72
2021/04/27 12:09:24;;;;;;;19.50;17.42;;;;;;;;;;3578407;40;20731;-71
2021/04/27 12:11:51;;;;;;;19.88;17.75;;;;;;;;;;3577406;40;20793;-71
2021/04/27 12:14:18;;;;;;;19.55;17.45;;;;;;;;;;3577394;40;20399;-72
2021/04/27 12:16:45;;;;;;;19.98;17.88;;;;;;;;;;3577582;40;20367;-72
2021/04/27 12:19:12;;;;;;;18.63;16.55;;;;;;;;;;3577240;40;20371;-71
2021/04/27 12:21:41;;;;;;;19.50;17.40;;;;;;;;;;3576519;40;20424;-71
2021/04/27 12:24:09;;;;;;;19.95;17.95;;;;;;;;;;3577124;40;20391;-72
2021/04/27 12:26:35;;;;;;;17.90;15.63;;;;;;;;;;3575773;40;20684;-71
2021/04/27 12:29:02;;;;;;;18.55;15.85;;;;;;;;;;3579146;40;20376;-72
2021/04/27 12:31:28;;;;;;;18.50;16.20;;;;;;;;;;3580426;40;20851;-73
2021/04/27 12:33:55;;;;;;;19.77;17.73;;;;;;;;;;3575641;40;20662;-72
2021/04/27 12:36:31;;;;;;;17.70;15.90;;;;;;;;;;3577448;40;20399;-72
2021/04/27 12:38:58;;;;;;;18.35;16.25;;;;;;;;;;3568048;40;20388;-72
2021/04/27 12:41:34;;;;;;;17.20;15.27;;;;;;;;;;3576648;40;20407;-72
2021/04/27 12:44:21;;;;;;;16.00;14.40;;;;;;;;;;3577548;40;20364;-71
2021/04/27 12:46:48;;;;;;;18.35;16.35;;;;;;;;;;3574595;40;20436;-72
2021/04/27 12:49:14;;;;;;;18.17;16.20;;;;;;;;;;3577613;40;20376;-72
2021/04/27 12:51:41;;;;;;;16.95;15.25;;;;;;;;;;3574658;40;20409;-72
2021/04/27 12:54:23;;;;;;;17.15;15.35;;;;;;;;;;3576702;40;20704;-72
2021/04/27 12:57:01;;;;;;;16.02;14.45;;;;;;;;;;3577315;40;20406;-72
2021/04/27 12:59:29;;;;;;;17.00;15.27;;;;;;;;;;3566267;40;20381;-72
2021/04/27 13:01:57;;;;;;;18.40;16.50;;;;;;;;;;3581306;40;20453;-72
2021/04/27 13:04:23;;;;;;;16.97;15.27;;;;;;;;;;3577058;40;20412;-72
2021/04/27 13:06:50;;;;;;;17.23;15.43;;;;;;;;;;3577062;40;20444;-72
2021/04/27 13:09:17;;;;;;;15.35;13.80;;;;;;;;;;3580881;40;20376;-72
2021/04/27 13:11:56;;;;;;;14.95;13.35;;;;;;;;;;3577438;40;20774;-72
2021/04/27 13:14:23;;;;;;;15.85;14.15;;;;;;;;;;3569558;40;20410;-72
2021/04/27 13:16:49;;;;;;;17.55;15.77;;;;;;;;;;3577222;40;20379;-72
2021/04/27 13:19:15;;;;;;;15.93;14.00;;;;;;;;;;3576563;40;20433;-72
2021/04/27 13:21:42;;;;;;;18.33;15.77;;;;;;;;;;3577153;40;20426;-72
2021/04/27 13:24:09;;;;;;;19.63;17.50;;;;;;;;;;3577118;40;20379;-72
2021/04/27 13:26:36;;;;;;;18.85;16.42;;;;;;;;;;3577167;40;20376;-72
2021/04/27 13:29:03;;;;;;;19.23;17.17;;;;;;;;;;3577766;40;20391;-72
2021/04/27 13:31:29;;;;;;;18.50;16.52;;;;;;;;;;3579651;40;20412;-73
2021/04/27 13:33:56;;;;;;;18.42;16.42;;;;;;;;;;3577130;40;20376;-72
2021/04/27 13:36:22;;;;;;;18.35;16.45;;;;;;;;;;3577261;40;20388;-74
2021/04/27 13:38:49;;;;;;;22.17;19.70;;;;;;;;;;3577124;40;20391;-72
2021/04/27 13:41:15;;;;;;;25.57;20.60;;;;;;;;;;3577882;40;20398;-72
2021/04/27 13:43:45;;;;;;;20.17;18.02;;;;;;;;;;3578647;40;20463;-72
2021/04/27 13:46:12;;;;;;;21.23;19.02;;;;;;;;;;3576281;40;20415;-72
2021/04/27 13:48:38;;;;;;;21.27;18.90;;;;;;;;;;3580562;40;20386;-72
2021/04/27 13:51:06;;;;;;;22.55;18.77;;;;;;;;;;3577229;40;20376;-71
2021/04/27 13:53:32;;;;;;;27.10;20.95;;;;;;;;;;3580003;40;20376;-72
2021/04/27 13:56:00;;;;;;;25.85;20.88;;;;;;;;;;3577308;40;20376;-72
2021/04/27 13:58:27;;;;;;;21.23;17.35;;;;;;;;;;3576945;40;20388;-72
2021/04/27 14:00:54;;;;;;;19.27;17.17;;;;;;;;;;3567854;40;20423;-71
2021/04/27 14:03:21;;;;;;;20.13;18.02;;;;;;;;;;3581126;40;20413;-71
2021/04/27 14:05:48;;;;;;;19.13;16.55;;;;;;;;;;3578740;40;20772;-72
2021/04/27 14:08:14;;;;;;;22.25;18.85;;;;;;;;;;3576279;40;20396;-72
2021/04/27 14:10:41;;;;;;;20.67;18.58;;;;;;;;;;3577369;40;20376;-72
2021/04/27 14:13:08;;;;;;;21.92;18.15;;;;;;;;;;3577234;40;20451;-73
2021/04/27 14:15:35;;;;;;;20.58;18.38;;;13.60;99.90;;;;;;3576892;40;20396;-72
2021/04/27 14:18:02;;;;;;;22.83;19.13;;;14.50;99.90;;;;;;3576644;40;20368;-72